Time;durP1;ratioP1;P1;durP2;ratioP2;P2;SDS_P1;SDS_P2;PMS_P1;PMS_P2;Temp;Humidity;BMP_temperature;BMP_pressure;BME280_temperature;BME280_humidity;BME280_pressure;Samples;Min_cycle;Max_cycle;Signal;HPM_P1;HPM_P2
2022/04/07 00:04:07;;;;;;;3.22;2.97;;;;;;;;;;10420774;28;20216;-76
2022/04/07 00:09:08;;;;;;;6.82;3.35;;;;;;;;;;10417720;28;20199;-77
2022/04/07 00:14:09;;;;;;;3.03;2.83;;;;;;;;;;10418470;28;20294;-77
2022/04/07 00:19:10;;;;;;;4.72;3.38;;;;;;;;;;10411425;28;20589;-76
2022/04/07 00:24:11;;;;;;;4.00;3.65;;;;;;;;;;10423129;28;20202;-76
2022/04/07 00:29:12;;;;;;;3.88;3.50;;;;;;;;;;10423814;28;20206;-76
2022/04/07 00:34:13;;;;;;;3.13;3.03;;;;;;;;;;10430107;28;20219;-77
2022/04/07 00:39:14;;;;;;;5.35;3.72;;;;;;;;;;10432066;28;20202;-76
2022/04/07 00:44:15;;;;;;;5.00;3.35;;;;;;;;;;10426995;28;20278;-76
2022/04/07 00:49:16;;;;;;;3.65;3.45;;;;;;;;;;10427121;28;20203;-77
2022/04/07 00:54:18;;;;;;;4.13;3.92;;;;;;;;;;10435154;28;20313;-77
2022/04/07 00:59:19;;;;;;;4.57;4.18;;;;;;;;;;10425241;28;20231;-76
2022/04/07 01:04:20;;;;;;;5.47;4.60;;;;;;;;;;10420573;28;20299;-76
2022/04/07 01:09:22;;;;;;;7.13;4.13;;;;;;;;;;10411615;28;20352;-77
2022/04/07 01:14:23;;;;;;;6.75;4.57;;;;;;;;;;10434054;28;20210;-77
2022/04/07 01:19:24;;;;;;;4.75;4.40;;;;;;;;;;10428627;28;20246;-77
2022/04/07 01:24:27;;;;;;;4.80;4.43;;;;;;;;;;10425842;28;20210;-77
2022/04/07 01:29:28;;;;;;;4.70;4.30;;;;;;;;;;10427128;28;21003;-77
2022/04/07 01:34:29;;;;;;;4.85;4.10;;;;;;;;;;10425335;28;20726;-77
2022/04/07 01:39:30;;;;;;;4.47;4.18;;;;;;;;;;10428378;28;20206;-76
2022/04/07 01:44:33;;;;;;;6.63;4.43;;;;;;;;;;10420971;28;20203;-76
2022/04/07 01:49:36;;;;;;;7.15;4.68;;;;;;;;;;10432135;28;20218;-76
2022/04/07 01:54:37;;;;;;;4.47;4.18;;;;;;;;;;10422167;28;20227;-76
2022/04/07 01:59:39;;;;;;;4.75;4.35;;;;;;;;;;10423047;28;20218;-76
2022/04/07 02:04:56;;;;;;;4.38;4.18;;;;;;;;;;10420019;28;20266;-76
2022/04/07 02:09:58;;;;;;;4.85;4.55;;;;;;;;;;10407757;28;20215;-76
2022/04/07 02:15:02;;;;;;;4.78;4.40;;;;;;;;;;10408991;28;20211;-76
2022/04/07 02:20:05;;;;;;;4.78;4.47;;;;;;;;;;10425180;28;20191;-75
2022/04/07 02:25:08;;;;;;;5.10;3.97;;;;;;;;;;10421615;28;20210;-76
2022/04/07 02:30:10;;;;;;;5.90;5.22;;;;;;;;;;10424645;28;20199;-76
2022/04/07 02:35:13;;;;;;;4.70;4.40;;;;;;;;;;10424031;28;20211;-76
2022/04/07 02:40:14;;;;;;;5.15;4.68;;;;;;;;;;10423951;28;20199;-76
2022/04/07 02:45:15;;;;;;;5.25;4.40;;;;;;;;;;10419995;28;20252;-76
2022/04/07 02:50:16;;;;;;;4.82;4.40;;;;;;;;;;10421316;28;21156;-76
2022/04/07 02:55:17;;;;;;;4.45;4.13;;;;;;;;;;10402528;28;20226;-76
2022/04/07 03:00:18;;;;;;;4.38;4.15;;;;;;;;;;10404569;28;20225;-76
2022/04/07 03:05:20;;;;;;;4.25;4.00;;;;;;;;;;10423016;28;20639;-76
2022/04/07 03:10:21;;;;;;;5.25;4.70;;;;;;;;;;10422607;28;20199;-77
2022/04/07 03:15:23;;;;;;;4.53;4.22;;;;;;;;;;10415433;28;20637;-77
2022/04/07 03:20:24;;;;;;;5.78;4.50;;;;;;;;;;10406749;28;20198;-77
2022/04/07 03:25:25;;;;;;;6.05;4.35;;;;;;;;;;10425452;28;20313;-77
2022/04/07 03:30:26;;;;;;;4.30;3.88;;;;;;;;;;10420271;28;20203;-76
2022/04/07 03:35:27;;;;;;;4.30;4.07;;;;;;;;;;10418858;28;20223;-76
2022/04/07 03:40:28;;;;;;;4.28;3.75;;;;;;;;;;10418550;28;20195;-75
2022/04/07 03:45:29;;;;;;;4.35;3.97;;;;;;;;;;10422246;28;20552;-75
2022/04/07 03:50:30;;;;;;;4.03;3.15;;;;;;;;;;10421952;28;20209;-75
2022/04/07 03:55:31;;;;;;;3.88;3.58;;;;;;;;;;10417681;28;20261;-75
2022/04/07 04:00:33;;;;;;;3.85;3.30;;;;;;;;;;10419539;28;20285;-75
2022/04/07 04:05:34;;;;;;;4.65;3.70;;;;;;;;;;10421140;28;20206;-76
2022/04/07 04:10:35;;;;;;;3.65;3.22;;;;;;;;;;10422881;28;20214;-76
2022/04/07 04:15:36;;;;;;;3.70;3.50;;;;;;;;;;10428975;28;20249;-75
2022/04/07 04:20:38;;;;;;;3.67;3.50;;;;;;;;;;10432655;28;20301;-75
2022/04/07 04:25:39;;;;;;;4.13;3.83;;;;;;;;;;10427331;28;20211;-77
2022/04/07 04:30:41;;;;;;;3.75;3.45;;;;;;;;;;10424556;28;20963;-75
2022/04/07 04:35:42;;;;;;;4.07;3.40;;;;;;;;;;10421193;28;20222;-75
2022/04/07 04:40:43;;;;;;;3.75;2.92;;;;;;;;;;10420532;28;20294;-76
2022/04/07 04:45:44;;;;;;;2.60;2.50;;;;;;;;;;10421004;28;20344;-77
2022/04/07 04:50:45;;;;;;;3.03;2.70;;;;;;;;;;10430183;28;20629;-77
2022/04/07 04:55:46;;;;;;;2.33;2.22;;;;;;;;;;10422471;28;20318;-77
2022/04/07 05:00:47;;;;;;;2.63;2.22;;;;;;;;;;10419769;28;21330;-76
2022/04/07 05:05:48;;;;;;;2.20;2.03;;;;;;;;;;10420152;28;20202;-75
2022/04/07 05:10:49;;;;;;;2.13;2.03;;;;;;;;;;10421639;28;20325;-77
2022/04/07 05:15:51;;;;;;;2.40;2.30;;;;;;;;;;10423830;28;20685;-76
2022/04/07 05:20:53;;;;;;;2.20;2.10;;;;;;;;;;10423512;28;20785;-76
2022/04/07 05:25:54;;;;;;;1.42;1.42;;;;;;;;;;10421109;28;20249;-78
2022/04/07 05:30:56;;;;;;;1.85;1.85;;;;;;;;;;10424227;28;20219;-76
2022/04/07 05:35:57;;;;;;;2.05;1.60;;;;;;;;;;10421130;28;20289;-76
2022/04/07 05:40:58;;;;;;;1.10;1.00;;;;;;;;;;10421593;28;20257;-75
2022/04/07 05:45:59;;;;;;;0.73;0.73;;;;;;;;;;10414591;28;20207;-75
2022/04/07 05:51:00;;;;;;;0.73;0.73;;;;;;;;;;10422363;28;20198;-76
2022/04/07 05:56:01;;;;;;;0.57;0.50;;;;;;;;;;10416796;28;20276;-77
2022/04/07 06:01:02;;;;;;;0.47;0.47;;;;;;;;;;10417477;28;20267;-75
2022/04/07 06:06:03;;;;;;;0.75;0.70;;;;;;;;;;10417701;28;20233;-75
2022/04/07 06:11:04;;;;;;;0.50;0.50;;;;;;;;;;10419676;28;20252;-76
2022/04/07 06:16:05;;;;;;;0.60;0.60;;;;;;;;;;10411754;28;20301;-76
2022/04/07 06:21:06;;;;;;;1.17;1.05;;;;;;;;;;10421332;28;20202;-76
2022/04/07 06:26:07;;;;;;;1.55;0.90;;;;;;;;;;10422922;28;20250;-77
2022/04/07 06:31:09;;;;;;;1.05;1.05;;;;;;;;;;10428778;28;20214;-76
2022/04/07 06:36:10;;;;;;;1.88;0.75;;;;;;;;;;10418473;28;20234;-76
2022/04/07 06:41:11;;;;;;;2.30;1.08;;;;;;;;;;10419602;28;20229;-76
2022/04/07 06:46:12;;;;;;;1.25;1.20;;;;;;;;;;10422596;28;20766;-77
2022/04/07 06:51:14;;;;;;;1.30;1.25;;;;;;;;;;10422816;28;20203;-76
2022/04/07 06:56:15;;;;;;;1.30;1.20;;;;;;;;;;10399045;28;20723;-75
2022/04/07 07:01:16;;;;;;;1.20;0.73;;;;;;;;;;10404537;28;20199;-77
2022/04/07 07:06:17;;;;;;;0.50;0.50;;;;;;;;;;10422023;28;20207;-76
2022/04/07 07:11:18;;;;;;;1.45;0.50;;;;;;;;;;10402129;28;20591;-76
2022/04/07 07:16:19;;;;;;;1.52;0.50;;;;;;;;;;10417721;28;20218;-76
2022/04/07 07:21:20;;;;;;;0.57;0.40;;;;;;;;;;10399376;28;20312;-76
2022/04/07 07:26:21;;;;;;;0.40;0.40;;;;;;;;;;10404289;28;20585;-76
2022/04/07 07:31:22;;;;;;;0.47;0.47;;;;;;;;;;10414338;28;20253;-76
2022/04/07 07:36:24;;;;;;;0.65;0.50;;;;;;;;;;10420782;28;20233;-77
2022/04/07 07:41:25;;;;;;;3.17;0.60;;;;;;;;;;10419091;28;20210;-76
2022/04/07 07:46:29;;;;;;;0.40;0.40;;;;;;;;;;10410385;28;20198;-78
2022/04/07 07:51:30;;;;;;;1.13;0.32;;;;;;;;;;10436008;28;20206;-72
2022/04/07 07:56:31;;;;;;;0.50;0.50;;;;;;;;;;10430587;28;20583;-75
2022/04/07 08:01:32;;;;;;;0.50;0.50;;;;;;;;;;10435003;28;20306;-76
2022/04/07 08:06:33;;;;;;;0.40;0.40;;;;;;;;;;10413995;28;20215;-77
2022/04/07 08:11:34;;;;;;;0.40;0.40;;;;;;;;;;10433258;28;20195;-78
2022/04/07 08:16:36;;;;;;;0.50;0.50;;;;;;;;;;10430085;28;20245;-75
2022/04/07 08:21:37;;;;;;;0.32;0.32;;;;;;;;;;10425741;28;20290;-75
2022/04/07 08:26:38;;;;;;;0.57;0.57;;;;;;;;;;10420102;28;20710;-77
2022/04/07 08:31:39;;;;;;;0.50;0.50;;;;;;;;;;10421516;28;20214;-77
2022/04/07 08:36:42;;;;;;;0.40;0.38;;;;;;;;;;10426333;28;20701;-76
2022/04/07 08:41:45;;;;;;;0.50;0.50;;;;;;;;;;10411936;28;20215;-75
2022/04/07 08:46:53;;;;;;;1.48;0.50;;;;;;;;;;10413094;28;20207;-76
2022/04/07 08:51:54;;;;;;;0.30;0.30;;;;;;;;;;10414694;28;20207;-76
2022/04/07 08:56:55;;;;;;;1.58;0.50;;;;;;;;;;10422046;28;20238;-75
2022/04/07 09:02:03;;;;;;;0.80;0.30;;;;;;;;;;10424599;28;20215;-77
2022/04/07 09:07:04;;;;;;;0.63;0.35;;;;;;;;;;10433439;28;20200;-78
2022/04/07 09:12:06;;;;;;;0.63;0.38;;;;;;;;;;10426319;28;20198;-76
2022/04/07 09:17:07;;;;;;;0.40;0.40;;;;;;;;;;10424677;28;20222;-75
2022/04/07 09:22:09;;;;;;;1.10;0.45;;;;;;;;;;10424304;28;20228;-76
2022/04/07 09:27:12;;;;;;;0.50;0.50;;;;;;;;;;10410905;28;20565;-75
2022/04/07 09:32:18;;;;;;;0.52;0.35;;;;;;;;;;10400427;28;20334;-74
2022/04/07 09:37:20;;;;;;;1.50;0.43;;;;;;;;;;10395437;28;20187;-75
2022/04/07 09:42:22;;;;;;;0.40;0.40;;;;;;;;;;10414269;28;20203;-72
2022/04/07 09:47:24;;;;;;;0.30;0.30;;;;;;;;;;10410380;28;20203;-75
2022/04/07 09:52:25;;;;;;;0.30;0.30;;;;;;;;;;10415426;28;20218;-76
2022/04/07 09:57:27;;;;;;;1.48;0.40;;;;;;;;;;10411997;28;20227;-75
2022/04/07 10:02:32;;;;;;;0.65;0.28;;;;;;;;;;10418966;28;20931;-76
2022/04/07 10:07:34;;;;;;;0.65;0.20;;;;;;;;;;10419942;28;20214;-69
2022/04/07 10:12:35;;;;;;;1.45;0.10;;;;;;;;;;10417544;28;20234;-74
2022/04/07 10:17:36;;;;;;;1.58;0.10;;;;;;;;;;10397627;28;21250;-75
2022/04/07 10:22:37;;;;;;;0.10;0.10;;;;;;;;;;10412931;28;20200;-75
2022/04/07 10:27:52;;;;;;;0.10;0.10;;;;;;;;;;10412080;28;20210;-74
2022/04/07 10:32:56;;;;;;;0.30;0.30;;;;;;;;;;10416136;28;20229;-75
2022/04/07 10:37:57;;;;;;;0.32;0.20;;;;;;;;;;10412596;28;20228;-74
2022/04/07 10:43:11;;;;;;;0.10;0.10;;;;;;;;;;10392628;28;20195;-75
2022/04/07 10:48:18;;;;;;;0.30;0.20;;;;;;;;;;10413595;28;20311;-77
2022/04/07 10:53:19;;;;;;;0.10;0.10;;;;;;;;;;10406174;28;20272;-76
2022/04/07 10:58:21;;;;;;;2.25;0.10;;;;;;;;;;10413447;28;20203;-75
2022/04/07 11:03:22;;;;;;;2.38;0.10;;;;;;;;;;10415196;28;20717;-77
2022/04/07 11:08:24;;;;;;;0.20;0.10;;;;;;;;;;10423015;28;20207;-75
2022/04/07 11:13:41;;;;;;;1.75;0.43;;;;;;;;;;10402226;28;20241;-76
2022/04/07 11:18:54;;;;;;;0.10;0.10;;;;;;;;;;10414614;28;20211;-74
2022/04/07 11:23:56;;;;;;;0.15;0.10;;;;;;;;;;10413385;28;20963;-75
2022/04/07 11:29:04;;;;;;;1.90;0.10;;;;;;;;;;10407872;28;20354;-76
2022/04/07 11:34:25;;;;;;;1.17;0.10;;;;;;;;;;10406590;28;20208;-76
2022/04/07 11:39:26;;;;;;;0.10;0.10;;;;;;;;;;10385257;28;20199;-76
2022/04/07 11:44:28;;;;;;;0.10;0.10;;;;;;;;;;10409396;28;20290;-74
2022/04/07 11:49:29;;;;;;;0.88;0.10;;;;;;;;;;10406850;28;20808;-76
2022/04/07 11:54:36;;;;;;;0.43;0.10;;;;;;;;;;10402439;28;20265;-78
2022/04/07 11:59:37;;;;;;;0.52;0.10;;;;;;;;;;10406717;28;20198;-75
2022/04/07 12:04:40;;;;;;;0.20;0.20;;;;;;;;;;10410864;28;20329;-75
2022/04/07 12:09:41;;;;;;;0.10;0.10;;;;;;;;;;10411575;28;20578;-76
2022/04/07 12:14:43;;;;;;;3.40;0.20;;;;;;;;;;10395303;28;20277;-76
2022/04/07 12:19:45;;;;;;;0.80;0.13;;;;;;;;;;10410322;28;20196;-75
2022/04/07 12:24:59;;;;;;;0.15;0.15;;;;;;;;;;10411164;28;20196;-74
2022/04/07 12:30:01;;;;;;;0.30;0.30;;;;;;;;;;10410056;28;20206;-75
2022/04/07 12:35:02;;;;;;;0.22;0.20;;;;;;;;;;10418470;28;20704;-71
2022/04/07 12:40:04;;;;;;;0.35;0.17;;;;;;;;;;10413459;28;20762;-74
2022/04/07 12:45:08;;;;;;;2.78;0.22;;;;;;;;;;10416244;28;20289;-74
2022/04/07 12:50:09;;;;;;;1.05;0.20;;;;;;;;;;10414687;28;20202;-75
2022/04/07 12:55:12;;;;;;;1.50;0.32;;;;;;;;;;10415569;28;20227;-73
2022/04/07 13:00:18;;;;;;;0.40;0.20;;;;;;;;;;10419549;28;20223;-73
2022/04/07 13:05:27;;;;;;;0.22;0.20;;;;;;;;;;10411854;28;20223;-72
2022/04/07 13:10:29;;;;;;;0.95;0.20;;;;;;;;;;10413355;28;20988;-71
2022/04/07 13:15:30;;;;;;;0.93;0.30;;;;;;;;;;10412583;28;20774;-73
2022/04/07 13:20:31;;;;;;;1.70;0.20;;;;;;;;;;10414620;28;20210;-73
2022/04/07 13:25:32;;;;;;;1.02;0.38;;;;;;;;;;10416274;28;20222;-73
2022/04/07 13:30:34;;;;;;;0.30;0.30;;;;;;;;;;10417587;28;20221;-71
2022/04/07 13:35:35;;;;;;;1.13;0.20;;;;;;;;;;10420886;28;20211;-73
2022/04/07 13:40:36;;;;;;;0.32;0.30;;;;;;;;;;10420134;28;20202;-74
2022/04/07 13:45:37;;;;;;;1.45;0.17;;;;;;;;;;10419035;28;20633;-74
2022/04/07 13:50:40;;;;;;;0.98;0.10;;;;;;;;;;10415154;28;20206;-74
2022/04/07 13:55:41;;;;;;;0.35;0.10;;;;;;;;;;10413533;28;20266;-75
2022/04/07 14:00:43;;;;;;;0.10;0.10;;;;;;;;;;10415236;28;20731;-75
2022/04/07 14:05:44;;;;;;;0.10;0.10;;;;;;;;;;10420295;28;20813;-76
2022/04/07 14:10:45;;;;;;;0.13;0.13;;;;;;;;;;10422219;28;20207;-77
2022/04/07 14:15:47;;;;;;;0.38;0.30;;;;;;;;;;10409725;28;20234;-78
2022/04/07 14:20:49;;;;;;;0.17;0.17;;;;;;;;;;10429029;28;20277;-77
2022/04/07 14:25:50;;;;;;;0.40;0.40;;;;;;;;;;10420348;28;20206;-76
2022/04/07 14:30:52;;;;;;;0.22;0.22;;;;;;;;;;10420802;28;20215;-78
2022/04/07 14:35:53;;;;;;;0.50;0.40;;;;;;;;;;10421882;28;20714;-78
2022/04/07 14:40:54;;;;;;;0.40;0.30;;;;;;;;;;10422455;28;20194;-78
2022/04/07 14:45:55;;;;;;;1.92;0.38;;;;;;;;;;10422368;28;20209;-77
2022/04/07 14:50:56;;;;;;;0.25;0.25;;;;;;;;;;10423475;28;20559;-77
2022/04/07 14:55:59;;;;;;;0.68;0.40;;;;;;;;;;10417238;28;20234;-76
2022/04/07 15:01:00;;;;;;;0.35;0.35;;;;;;;;;;10418457;28;20589;-76
2022/04/07 15:06:01;;;;;;;0.63;0.40;;;;;;;;;;10419215;28;20198;-76
2022/04/07 15:11:02;;;;;;;0.52;0.30;;;;;;;;;;10418992;28;20217;-75
2022/04/07 15:16:04;;;;;;;0.32;0.32;;;;;;;;;;10417510;28;20230;-75
2022/04/07 15:21:05;;;;;;;1.52;0.40;;;;;;;;;;10413769;28;20683;-75
2022/04/07 15:26:06;;;;;;;0.47;0.47;;;;;;;;;;10415927;28;20216;-75
2022/04/07 15:31:10;;;;;;;0.40;0.40;;;;;;;;;;10416307;28;20230;-77
2022/04/07 15:36:11;;;;;;;1.20;0.50;;;;;;;;;;10400330;28;20215;-77
2022/04/07 15:41:12;;;;;;;0.43;0.40;;;;;;;;;;10404292;28;20939;-75
2022/04/07 15:46:13;;;;;;;0.82;0.50;;;;;;;;;;10416112;28;20209;-75
2022/04/07 15:51:14;;;;;;;3.15;0.60;;;;;;;;;;10412996;28;20195;-76
2022/04/07 15:56:15;;;;;;;1.95;0.50;;;;;;;;;;10408078;28;20234;-75
2022/04/07 16:01:16;;;;;;;1.05;0.43;;;;;;;;;;10412448;28;20219;-75
2022/04/07 16:06:17;;;;;;;0.25;0.15;;;;;;;;;;10426014;28;20328;-76
2022/04/07 16:11:20;;;;;;;0.60;0.20;;;;;;;;;;10423736;28;20222;-75
2022/04/07 16:16:21;;;;;;;0.45;0.20;;;;;;;;;;10421476;28;20248;-75
2022/04/07 16:21:22;;;;;;;0.57;0.22;;;;;;;;;;10427382;28;20211;-76
2022/04/07 16:26:23;;;;;;;0.50;0.30;;;;;;;;;;10423947;28;20234;-77
2022/04/07 16:31:26;;;;;;;2.45;0.40;;;;;;;;;;10425047;28;20311;-82
2022/04/07 16:36:28;;;;;;;1.45;0.40;;;;;;;;;;10421907;28;20220;-75
2022/04/07 16:41:29;;;;;;;0.95;0.50;;;;;;;;;;10421917;28;20566;-77
2022/04/07 16:46:30;;;;;;;1.80;0.57;;;;;;;;;;10425784;28;20196;-77
2022/04/07 16:51:31;;;;;;;1.05;0.55;;;;;;;;;;10428668;28;20260;-77
2022/04/07 16:56:32;;;;;;;1.75;0.40;;;;;;;;;;10418812;28;20656;-75
2022/04/07 17:01:33;;;;;;;2.72;0.70;;;;;;;;;;10422849;28;20691;-73
2022/04/07 17:06:34;;;;;;;3.80;0.70;;;;;;;;;;10421286;28;20213;-74
2022/04/07 17:11:35;;;;;;;1.90;0.73;;;;;;;;;;10419442;28;20210;-74
2022/04/07 17:16:37;;;;;;;2.95;0.50;;;;;;;;;;10419917;28;20223;-74
2022/04/07 17:21:38;;;;;;;0.80;0.50;;;;;;;;;;10421274;28;20187;-73
2022/04/07 17:26:39;;;;;;;1.63;0.40;;;;;;;;;;10415885;28;20218;-75
2022/04/07 17:31:41;;;;;;;1.13;0.60;;;;;;;;;;10417334;28;20240;-75
2022/04/07 17:36:42;;;;;;;3.00;0.90;;;;;;;;;;10419307;28;20215;-75
2022/04/07 17:41:43;;;;;;;2.97;0.77;;;;;;;;;;10420201;28;20563;-73
2022/04/07 17:46:44;;;;;;;1.83;0.77;;;;;;;;;;10420697;28;20261;-76
2022/04/07 17:51:45;;;;;;;0.77;0.52;;;;;;;;;;10417279;28;20264;-76
2022/04/07 17:56:46;;;;;;;2.53;0.80;;;;;;;;;;10420138;28;20223;-74
2022/04/07 18:01:48;;;;;;;6.03;0.60;;;;;;;;;;10418340;28;20217;-75
2022/04/07 18:06:49;;;;;;;4.45;0.60;;;;;;;;;;10417780;28;20265;-75
2022/04/07 18:11:50;;;;;;;1.60;0.70;;;;;;;;;;10419940;28;20224;-75
2022/04/07 18:16:51;;;;;;;4.00;0.50;;;;;;;;;;10420083;28;20661;-75
2022/04/07 18:21:52;;;;;;;2.13;0.47;;;;;;;;;;10420997;28;20278;-75
2022/04/07 18:26:53;;;;;;;0.60;0.40;;;;;;;;;;10415427;28;20207;-74
2022/04/07 18:31:56;;;;;;;0.65;0.43;;;;;;;;;;10404016;28;20219;-75
2022/04/07 18:36:57;;;;;;;1.63;0.43;;;;;;;;;;10404542;28;20214;-75
2022/04/07 18:41:58;;;;;;;1.75;0.75;;;;;;;;;;10409843;28;20207;-74
2022/04/07 18:46:59;;;;;;;4.38;0.75;;;;;;;;;;10416116;28;20654;-74
2022/04/07 18:52:00;;;;;;;2.45;0.80;;;;;;;;;;10421694;28;20322;-74
2022/04/07 18:57:01;;;;;;;2.17;0.40;;;;;;;;;;10415244;28;20221;-73
2022/04/07 19:02:02;;;;;;;0.38;0.32;;;;;;;;;;10411828;28;20216;-75
2022/04/07 19:07:03;;;;;;;3.45;0.30;;;;;;;;;;10417323;28;20210;-74
2022/04/07 19:12:05;;;;;;;1.58;0.43;;;;;;;;;;10417211;28;20286;-73
2022/04/07 19:17:06;;;;;;;0.52;0.30;;;;;;;;;;10417926;28;20213;-74
2022/04/07 19:22:07;;;;;;;0.50;0.30;;;;;;;;;;10412079;28;20628;-72
2022/04/07 19:27:09;;;;;;;1.85;0.50;;;;;;;;;;10418743;28;20235;-74
2022/04/07 19:32:10;;;;;;;1.25;0.60;;;;;;;;;;10416623;28;20215;-74
2022/04/07 19:37:12;;;;;;;2.17;0.60;;;;;;;;;;10415602;28;20200;-70
2022/04/07 19:42:14;;;;;;;2.10;0.50;;;;;;;;;;10410829;28;20201;-73
2022/04/07 19:47:15;;;;;;;2.05;0.70;;;;;;;;;;10407319;28;20307;-74
2022/04/07 19:52:21;;;;;;;2.45;0.60;;;;;;;;;;10411896;28;20200;-74
2022/04/07 19:57:22;;;;;;;2.25;0.65;;;;;;;;;;10410425;28;20233;-74
2022/04/07 20:02:23;;;;;;;3.42;0.50;;;;;;;;;;10415256;28;20217;-74
2022/04/07 20:07:24;;;;;;;1.35;0.50;;;;;;;;;;10415077;28;20202;-74
2022/04/07 20:12:25;;;;;;;4.07;0.88;;;;;;;;;;10414943;28;20279;-74
2022/04/07 20:17:26;;;;;;;5.03;0.82;;;;;;;;;;10413607;28;20578;-74
2022/04/07 20:22:28;;;;;;;3.80;0.82;;;;;;;;;;10395258;28;20231;-74
2022/04/07 20:27:29;;;;;;;1.35;1.13;;;;;;;;;;10421147;28;20292;-74
2022/04/07 20:32:30;;;;;;;3.67;1.25;;;;;;;;;;10417152;28;20211;-75
2022/04/07 20:37:32;;;;;;;2.63;1.30;;;;;;;;;;10415462;28;20202;-75
2022/04/07 20:42:35;;;;;;;3.45;1.88;;;;;;;;;;10410318;28;20203;-75
2022/04/07 20:47:36;;;;;;;2.45;0.82;;;;;;;;;;10408692;28;20205;-74
2022/04/07 20:52:43;;;;;;;1.60;0.90;;;;;;;;;;10413969;28;20207;-75
2022/04/07 20:57:44;;;;;;;1.45;1.30;;;;;;;;;;10416926;28;20231;-74
2022/04/07 21:02:46;;;;;;;2.13;1.27;;;;;;;;;;10410015;28;20282;-75
2022/04/07 21:07:50;;;;;;;1.48;0.82;;;;;;;;;;10428962;28;20245;-74
2022/04/07 21:12:51;;;;;;;1.65;0.50;;;;;;;;;;10416507;28;20259;-73
2022/04/07 21:17:52;;;;;;;0.80;0.80;;;;;;;;;;10420737;28;20202;-74
2022/04/07 21:22:53;;;;;;;0.50;0.50;;;;;;;;;;10419377;28;20215;-74
2022/04/07 21:27:54;;;;;;;0.75;0.50;;;;;;;;;;10420636;28;20237;-74
2022/04/07 21:32:55;;;;;;;3.40;0.90;;;;;;;;;;10420486;28;20253;-74
2022/04/07 21:37:56;;;;;;;0.65;0.63;;;;;;;;;;10415184;28;20208;-75
2022/04/07 21:42:57;;;;;;;0.70;0.70;;;;;;;;;;10414450;28;20255;-74
2022/04/07 21:47:59;;;;;;;0.98;0.75;;;;;;;;;;10418702;28;20317;-74
2022/04/07 21:53:00;;;;;;;3.05;1.30;;;;;;;;;;10412604;28;20640;-74
2022/04/07 21:58:01;;;;;;;1.83;0.80;;;;;;;;;;10420799;28;20302;-75
2022/04/07 22:03:02;;;;;;;2.88;0.85;;;;;;;;;;10420848;28;20335;-73
2022/04/07 22:08:03;;;;;;;2.50;0.60;;;;;;;;;;10416819;28;20203;-75
2022/04/07 22:13:04;;;;;;;3.03;0.95;;;;;;;;;;10406685;28;20231;-74
2022/04/07 22:18:06;;;;;;;2.08;0.55;;;;;;;;;;10408113;28;20203;-75
2022/04/07 22:23:07;;;;;;;1.65;0.50;;;;;;;;;;10406060;28;20210;-74
2022/04/07 22:28:08;;;;;;;1.88;0.65;;;;;;;;;;10413095;28;20204;-74
2022/04/07 22:33:09;;;;;;;2.38;0.60;;;;;;;;;;10415043;28;20229;-74
2022/04/07 22:38:10;;;;;;;3.10;1.38;;;;;;;;;;10418032;28;20234;-67
2022/04/07 22:43:11;;;;;;;2.42;0.77;;;;;;;;;;10408199;28;20731;-74
2022/04/07 22:48:12;;;;;;;5.50;1.13;;;;;;;;;;10409843;28;20205;-74
2022/04/07 22:53:13;;;;;;;3.67;0.93;;;;;;;;;;10414186;28;20219;-74
2022/04/07 22:58:14;;;;;;;0.98;0.98;;;;;;;;;;10411655;28;20276;-75
2022/04/07 23:03:15;;;;;;;0.93;0.85;;;;;;;;;;10410738;28;20297;-75
2022/04/07 23:08:16;;;;;;;2.67;0.93;;;;;;;;;;10409795;28;20247;-72
2022/04/07 23:13:17;;;;;;;0.80;0.80;;;;;;;;;;10406116;28;20227;-75
2022/04/07 23:18:18;;;;;;;1.25;0.95;;;;;;;;;;10410315;28;20203;-74
2022/04/07 23:23:20;;;;;;;1.67;1.30;;;;;;;;;;10413695;28;21093;-74
2022/04/07 23:28:21;;;;;;;1.23;1.13;;;;;;;;;;10416287;28;20214;-75
2022/04/07 23:33:22;;;;;;;1.50;1.40;;;;;;;;;;10411939;28;20261;-74
2022/04/07 23:38:23;;;;;;;2.55;1.00;;;;;;;;;;10412728;28;20352;-74
2022/04/07 23:43:24;;;;;;;1.67;1.10;;;;;;;;;;10409240;28;20774;-74
2022/04/07 23:48:25;;;;;;;3.65;1.00;;;;;;;;;;10413022;28;20234;-74
2022/04/07 23:53:26;;;;;;;0.88;0.80;;;;;;;;;;10413282;28;20227;-73
2022/04/07 23:58:27;;;;;;;1.27;0.80;;;;;;;;;;10412343;28;20556;-74
